DataTemp.
Ø
Temp.
Max
Temp.
Min
UmiditàPressionePioggiaVento
Ø
Vento
dir. Ø
Vento
Max
Indice UV
Max
24.03.2019 00:008.3°C8.4°C8.3°C51.0%1024.0hPa0.0mm0.6km/hWSW3.2km/h0uvi
24.03.2019 00:058.3°C8.3°C8.2°C51.2%1024.0hPa0.0mm1.4km/hWSW3.2km/h0uvi
24.03.2019 00:108.1°C8.2°C8.0°C52.5%1024.0hPa0.0mm2.9km/hSSW4.3km/h0uvi
24.03.2019 00:158.0°C8.0°C7.9°C53.0%1024.0hPa0.0mm2.6km/hSSW4.0km/h0uvi
24.03.2019 00:207.9°C7.9°C7.9°C52.7%1024.0hPa0.0mm1.4km/hWSW2.2km/h0uvi
24.03.2019 00:257.8°C7.8°C7.8°C52.3%1024.0hPa0.0mm1.0km/hWSW2.2km/h0uvi
24.03.2019 00:307.7°C7.8°C7.7°C52.0%1024.0hPa0.0mm0.0km/hWSW1.8km/h0uvi
24.03.2019 00:357.7°C7.7°C7.7°C52.0%1024.0hPa0.0mm1.2km/hWSW4.0km/h0uvi
24.03.2019 00:407.6°C7.7°C7.5°C55.0%1024.0hPa0.0mm3.6km/hSSW4.7km/h0uvi
24.03.2019 00:457.3°C7.4°C7.3°C56.2%1024.0hPa0.0mm3.2km/hSSW4.7km/h0uvi
24.03.2019 00:507.3°C7.3°C7.3°C54.8%1024.0hPa0.0mm0.9km/hSSW3.6km/h0uvi
24.03.2019 00:557.3°C7.3°C7.3°C55.2%1024.0hPa0.0mm1.8km/hWSW3.2km/h0uvi
24.03.2019 01:007.2°C7.3°C7.2°C54.2%1024.0hPa0.0mm0.3km/hWSW1.8km/h0uvi
24.03.2019 01:057.2°C7.2°C7.2°C55.2%1024.0hPa0.0mm1.8km/hSSW3.2km/h0uvi
24.03.2019 01:107.2°C7.2°C7.2°C55.3%1024.0hPa0.0mm1.2km/hWSW2.5km/h0uvi
24.03.2019 01:157.2°C7.2°C7.1°C54.2%1024.0hPa0.0mm0.1km/hWSW1.8km/h0uvi
24.03.2019 01:207.2°C7.2°C7.1°C54.0%1024.0hPa0.0mm0.0km/hWNW1.4km/h0uvi
24.03.2019 01:257.1°C7.1°C7.0°C54.0%1024.0hPa0.0mm0.2km/hWSW2.2km/h0uvi
24.03.2019 01:307.0°C7.0°C7.0°C54.5%1024.0hPa0.0mm2.0km/hWSW4.0km/h0uvi
24.03.2019 01:356.9°C7.0°C6.8°C56.0%1024.0hPa0.0mm1.9km/hSSW2.5km/h0uvi
24.03.2019 01:406.7°C6.8°C6.7°C56.8%1024.0hPa0.0mm2.1km/hSSW3.6km/h0uvi
24.03.2019 01:456.6°C6.6°C6.6°C57.0%1024.0hPa0.0mm2.0km/hWSW3.6km/h0uvi
24.03.2019 01:506.6°C6.6°C6.5°C57.4%1024.0hPa0.0mm1.5km/hWSW4.0km/h0uvi
24.03.2019 01:556.5°C6.6°C6.5°C58.0%1024.0hPa0.0mm2.9km/hSSW4.3km/h0uvi
24.03.2019 02:006.4°C6.5°C6.4°C58.0%1024.0hPa0.0mm1.8km/hWSW3.2km/h0uvi
24.03.2019 02:056.4°C6.4°C6.4°C58.0%1024.0hPa0.0mm1.7km/hWSW2.5km/h0uvi
24.03.2019 02:106.4°C6.4°C6.4°C58.0%1024.0hPa0.0mm1.9km/hWSW3.6km/h0uvi
24.03.2019 02:156.4°C6.4°C6.4°C58.0%1024.0hPa0.0mm1.9km/hSSW3.2km/h0uvi
24.03.2019 02:206.3°C6.3°C6.3°C58.0%1024.0hPa0.0mm1.5km/hWSW3.6km/h0uvi
24.03.2019 02:256.2°C6.3°C6.2°C58.0%1024.0hPa0.0mm1.3km/hSSW2.5km/h0uvi
24.03.2019 02:306.3°C6.3°C6.3°C58.8%1024.0hPa0.0mm3.1km/hSSW4.0km/h0uvi
24.03.2019 02:356.2°C6.2°C6.2°C58.5%1024.0hPa0.0mm2.4km/hSSW3.2km/h0uvi
24.03.2019 02:406.1°C6.2°C6.1°C58.4%1024.0hPa0.0mm2.0km/hSSW4.7km/h0uvi
24.03.2019 02:456.2°C6.2°C6.2°C58.0%1023.9hPa0.0mm1.1km/hNW1.8km/h0uvi
24.03.2019 02:506.2°C6.2°C6.1°C58.0%1023.0hPa0.0mm0.8km/hWSW3.2km/h0uvi
24.03.2019 02:556.1°C6.1°C6.1°C58.0%1023.0hPa0.0mm1.7km/hWSW5.0km/h0uvi
24.03.2019 03:006.0°C6.0°C5.9°C58.5%1023.1hPa0.0mm2.5km/hWSW5.0km/h0uvi
24.03.2019 03:055.8°C5.8°C5.8°C59.8%1024.0hPa0.0mm2.8km/hWSW4.7km/h0uvi
24.03.2019 03:105.7°C5.7°C5.6°C60.0%1024.0hPa0.0mm2.5km/hWSW4.0km/h0uvi
24.03.2019 03:155.5°C5.6°C5.5°C61.3%1024.0hPa0.0mm3.0km/hSSW4.0km/h0uvi
24.03.2019 03:205.5°C5.5°C5.4°C62.0%1024.0hPa0.0mm3.4km/hSSW4.3km/h0uvi
24.03.2019 03:255.5°C5.6°C5.5°C62.0%1024.0hPa0.0mm1.6km/hWSW2.5km/h0uvi
24.03.2019 03:305.6°C5.7°C5.6°C60.7%1024.0hPa0.0mm1.3km/hSSW2.5km/h0uvi
24.03.2019 03:355.7°C5.7°C5.7°C60.3%1024.0hPa0.0mm1.7km/hWSW4.0km/h0uvi
24.03.2019 03:405.7°C5.7°C5.6°C61.0%1024.0hPa0.0mm3.2km/hWSW4.7km/h0uvi
24.03.2019 03:455.4°C5.5°C5.4°C61.0%1024.0hPa0.0mm2.9km/hSSW4.0km/h0uvi
24.03.2019 03:505.3°C5.3°C5.3°C60.8%1024.0hPa0.0mm1.0km/hWSW3.6km/h0uvi
24.03.2019 03:555.3°C5.3°C5.3°C61.0%1024.0hPa0.0mm1.9km/hWSW4.0km/h0uvi
24.03.2019 04:005.3°C5.3°C5.3°C62.0%1024.0hPa0.0mm2.6km/hSSW4.7km/h0uvi
24.03.2019 04:055.3°C5.4°C5.3°C61.2%1024.0hPa0.0mm1.8km/hWSW3.2km/h0uvi
24.03.2019 04:105.4°C5.4°C5.4°C60.5%1024.0hPa0.0mm0.1km/hWSW1.4km/h0uvi
24.03.2019 04:155.4°C5.4°C5.4°C60.7%1024.0hPa0.0mm2.0km/hSSW4.0km/h0uvi
24.03.2019 04:205.5°C5.5°C5.4°C61.2%1024.0hPa0.0mm2.0km/hWSW3.2km/h0uvi
24.03.2019 04:255.5°C5.5°C5.5°C61.0%1024.0hPa0.0mm2.0km/hWSW3.6km/h0uvi
24.03.2019 04:305.4°C5.5°C5.4°C61.0%1023.9hPa0.0mm2.5km/hWSW4.7km/h0uvi
24.03.2019 04:355.4°C5.4°C5.4°C62.0%1023.0hPa0.0mm3.3km/hSSW5.0km/h0uvi
24.03.2019 04:405.3°C5.4°C5.3°C61.0%1023.0hPa0.0mm2.0km/hWSW3.2km/h0uvi
24.03.2019 04:455.3°C5.3°C5.3°C61.0%1023.1hPa0.0mm1.1km/hWSW2.5km/h0uvi
24.03.2019 04:505.2°C5.2°C5.1°C60.3%1024.0hPa0.0mm0.4km/hWSW2.5km/h0uvi
24.03.2019 04:555.1°C5.1°C5.0°C60.0%1024.0hPa0.0mm1.2km/hWSW3.2km/h0uvi
24.03.2019 05:005.0°C5.0°C4.9°C60.6%1023.9hPa0.0mm1.9km/hWSW3.6km/h0uvi
24.03.2019 05:054.8°C4.8°C4.7°C62.8%1023.0hPa0.0mm2.2km/hSSW3.6km/h0uvi
24.03.2019 05:104.6°C4.7°C4.6°C63.7%1023.0hPa0.0mm2.3km/hSSW3.6km/h0uvi
24.03.2019 05:154.5°C4.6°C4.5°C63.4%1023.0hPa0.0mm1.0km/hSW2.2km/h0uvi
24.03.2019 05:204.5°C4.5°C4.5°C64.0%1023.9hPa0.0mm2.2km/hSSW4.0km/h0uvi
24.03.2019 05:254.5°C4.6°C4.5°C66.0%1024.0hPa0.0mm2.4km/hWSW4.3km/h0uvi
24.03.2019 05:304.6°C4.6°C4.6°C66.3%1023.9hPa0.0mm2.9km/hWSW4.3km/h0uvi
24.03.2019 05:354.5°C4.6°C4.5°C66.0%1023.0hPa0.0mm2.3km/hWSW4.3km/h0uvi
24.03.2019 05:404.5°C4.5°C4.5°C66.2%1023.0hPa0.0mm2.7km/hWSW4.3km/h0uvi
24.03.2019 05:454.5°C4.5°C4.4°C66.0%1023.0hPa0.0mm1.9km/hWSW3.2km/h0uvi
24.03.2019 05:504.4°C4.4°C4.4°C65.8%1023.0hPa0.0mm1.5km/hSSW2.2km/h0uvi
24.03.2019 05:554.3°C4.3°C4.3°C65.0%1023.0hPa0.0mm1.3km/hWSW2.2km/h0uvi
24.03.2019 06:004.3°C4.3°C4.3°C65.3%1023.0hPa0.0mm1.3km/hWSW2.5km/h0uvi
24.03.2019 06:054.2°C4.2°C4.2°C68.2%1024.0hPa0.0mm3.7km/hSSW4.7km/h0uvi
24.03.2019 06:104.1°C4.2°C4.1°C68.0%1024.0hPa0.0mm2.5km/hWSW4.0km/h0uvi
24.03.2019 06:154.2°C4.2°C4.1°C68.0%1024.0hPa0.0mm2.4km/hWSW4.0km/h0uvi
24.03.2019 06:204.2°C4.2°C4.1°C68.0%1024.0hPa0.0mm2.2km/hWSW4.0km/h0uvi
24.03.2019 06:254.3°C4.3°C4.2°C68.4%1024.0hPa0.0mm1.9km/hWSW4.0km/h0uvi
24.03.2019 06:304.3°C4.4°C4.3°C68.4%1024.0hPa0.0mm2.0km/hWSW3.6km/h0uvi
24.03.2019 06:354.5°C4.5°C4.4°C69.0%1024.0hPa0.0mm2.9km/hWSW5.4km/h0uvi
24.03.2019 06:404.6°C4.6°C4.5°C68.0%1024.0hPa0.0mm1.5km/hWSW3.6km/h0uvi
24.03.2019 06:454.6°C4.6°C4.6°C67.7%1024.0hPa0.0mm2.2km/hWSW4.0km/h0uvi
24.03.2019 06:504.6°C4.6°C4.6°C67.0%1024.0hPa0.0mm0.7km/hWSW2.5km/h0uvi
24.03.2019 06:554.6°C4.6°C4.6°C67.0%1024.0hPa0.0mm1.2km/hNW2.5km/h0uvi
24.03.2019 07:004.6°C4.6°C4.6°C66.3%1024.1hPa0.0mm0.7km/hWNW4.7km/h0uvi
24.03.2019 07:054.6°C4.6°C4.6°C66.7%1025.0hPa0.0mm2.4km/hWSW5.4km/h0uvi
24.03.2019 07:104.7°C4.7°C4.7°C67.2%1025.0hPa0.0mm1.7km/hWSW3.6km/h0uvi
24.03.2019 07:154.7°C4.7°C4.7°C67.0%1024.9hPa0.0mm1.8km/hWSW2.5km/h0uvi
24.03.2019 07:204.7°C4.8°C4.7°C67.0%1024.0hPa0.0mm0.9km/hWSW2.5km/h0uvi
24.03.2019 07:254.9°C5.0°C4.8°C67.8%1024.0hPa0.0mm2.3km/hWSW4.7km/h0uvi
24.03.2019 07:305.2°C5.3°C5.1°C67.5%1024.0hPa0.0mm0.8km/hWSW2.5km/h0uvi
24.03.2019 07:355.5°C5.6°C5.4°C67.0%1024.0hPa0.0mm0.5km/hNW2.5km/h0uvi
24.03.2019 07:405.7°C5.8°C5.6°C66.2%1024.0hPa0.0mm1.9km/hWSW5.0km/h0uvi
24.03.2019 07:456.1°C6.3°C5.9°C66.0%1024.0hPa0.0mm3.2km/hSSW4.3km/h0uvi
24.03.2019 07:506.4°C6.5°C6.3°C64.4%1024.0hPa0.0mm2.7km/hWSW5.0km/h0uvi
24.03.2019 07:556.6°C6.7°C6.5°C63.5%1024.0hPa0.0mm2.1km/hWSW5.0km/h0uvi
24.03.2019 08:006.8°C6.9°C6.8°C61.8%1024.0hPa0.0mm1.5km/hWSW4.7km/h0uvi
24.03.2019 08:057.0°C7.1°C6.9°C60.2%1024.0hPa0.0mm1.3km/hNW4.3km/h0uvi
24.03.2019 08:107.2°C7.4°C7.1°C59.6%1024.0hPa0.0mm2.4km/hNW4.0km/h0uvi
24.03.2019 08:157.5°C7.7°C7.4°C58.6%1024.0hPa0.0mm1.7km/hNW3.6km/h0uvi
24.03.2019 08:207.8°C7.9°C7.8°C58.0%1024.0hPa0.0mm1.2km/hNW3.6km/h0uvi
24.03.2019 08:258.0°C8.1°C7.9°C57.5%1024.0hPa0.0mm0.6km/hWSW2.2km/h0uvi
24.03.2019 08:308.3°C8.4°C8.2°C56.8%1023.9hPa0.0mm1.6km/hWSW4.0km/h0uvi
24.03.2019 08:358.5°C8.6°C8.5°C55.8%1023.0hPa0.0mm2.4km/hWSW4.3km/h0uvi
24.03.2019 08:408.8°C8.9°C8.7°C54.6%1023.0hPa0.0mm1.3km/hNW2.2km/h0uvi
24.03.2019 08:459.0°C9.1°C8.9°C53.3%1023.0hPa0.0mm0.9km/hSSW3.6km/h0uvi
24.03.2019 08:509.4°C9.5°C9.3°C51.8%1024.0hPa0.0mm2.3km/hSSW4.0km/h1uvi
24.03.2019 08:559.6°C9.7°C9.5°C51.5%1024.0hPa0.0mm0.9km/hNW2.5km/h1uvi
24.03.2019 09:009.9°C10.0°C9.8°C50.8%1023.9hPa0.0mm0.7km/hWSW2.5km/h1uvi
24.03.2019 09:0510.2°C10.2°C10.1°C49.7%1023.0hPa0.0mm1.5km/hWSW3.6km/h1uvi
24.03.2019 09:1011.2°C11.5°C11.1°C42.0%1023.0hPa0.0mm1.5km/hSSW3.6km/h1uvi
24.03.2019 09:1512.0°C12.1°C11.8°C41.2%1023.0hPa0.0mm1.3km/hWSW4.0km/h2uvi
24.03.2019 09:2012.6°C12.9°C12.1°C40.4%1023.0hPa0.0mm0.6km/hSSW4.7km/h2uvi
24.03.2019 09:2512.6°C12.7°C12.5°C40.0%1023.0hPa0.0mm1.2km/hNW4.3km/h2uvi
24.03.2019 09:3012.9°C13.0°C12.9°C40.0%1023.0hPa0.0mm1.8km/hWSW3.6km/h2uvi
24.03.2019 09:3513.4°C13.6°C13.1°C39.0%1023.0hPa0.0mm1.5km/hSSW4.3km/h2uvi
24.03.2019 09:4013.5°C13.6°C13.4°C39.2%1023.0hPa0.0mm2.2km/hNW4.0km/h2uvi
24.03.2019 09:4513.8°C13.9°C13.8°C39.0%1022.8hPa0.0mm1.9km/hWSW5.0km/h2uvi
24.03.2019 09:5014.2°C14.3°C14.1°C37.3%1022.0hPa0.0mm1.6km/hSSW3.2km/h3uvi
24.03.2019 09:5514.1°C14.3°C14.0°C36.0%1022.0hPa0.0mm2.1km/hWSW4.3km/h3uvi
24.03.2019 10:0014.5°C14.8°C14.2°C34.8%1022.0hPa0.0mm1.7km/hNW5.8km/h3uvi
24.03.2019 10:0514.4°C14.4°C14.3°C33.3%1022.0hPa0.0mm3.5km/hNW4.7km/h3uvi
24.03.2019 10:1014.7°C14.9°C14.5°C33.4%1022.0hPa0.0mm2.2km/hNE4.7km/h3uvi
24.03.2019 10:1515.2°C15.2°C15.2°C32.5%1022.0hPa0.0mm2.5km/hNW5.8km/h3uvi
24.03.2019 10:2015.4°C15.6°C15.2°C32.4%1022.0hPa0.0mm2.1km/hNW4.0km/h3uvi
24.03.2019 10:2515.7°C15.8°C15.5°C31.6%1022.0hPa0.0mm2.4km/hWSW5.4km/h3uvi
24.03.2019 10:3015.8°C15.9°C15.8°C31.0%1022.0hPa0.0mm4.0km/hWSW6.8km/h3uvi
24.03.2019 10:3516.2°C16.4°C16.1°C30.5%1022.0hPa0.0mm2.5km/hWSW6.5km/h4uvi
24.03.2019 10:4016.3°C16.5°C16.2°C30.0%1022.0hPa0.0mm3.2km/hWSW6.5km/h4uvi
24.03.2019 10:4516.4°C16.6°C16.3°C29.3%1022.0hPa0.0mm3.0km/hNW6.8km/h4uvi
24.03.2019 10:5016.7°C16.8°C16.5°C29.0%1022.0hPa0.0mm3.2km/hWSW6.1km/h4uvi
24.03.2019 10:5516.9°C17.1°C16.7°C29.0%1022.0hPa0.0mm2.8km/hNE4.7km/h4uvi
24.03.2019 11:0017.5°C17.8°C17.2°C29.0%1021.9hPa0.0mm2.9km/hSSW5.8km/h4uvi
24.03.2019 11:0517.9°C18.0°C17.7°C29.0%1021.0hPa0.0mm0.6km/hNW5.4km/h4uvi
24.03.2019 11:1017.9°C18.1°C17.7°C28.5%1021.0hPa0.0mm2.3km/hNW3.2km/h4uvi
24.03.2019 11:1518.4°C18.7°C18.3°C28.0%1021.0hPa0.0mm2.8km/hWSW5.0km/h4uvi
24.03.2019 11:2018.6°C18.7°C18.5°C28.0%1021.0hPa0.0mm3.2km/hWSW5.4km/h4uvi
24.03.2019 11:2518.5°C18.5°C18.5°C28.0%1021.0hPa0.0mm3.4km/hNW5.8km/h4uvi
24.03.2019 11:3018.8°C18.8°C18.7°C28.0%1020.9hPa0.0mm4.1km/hWSW10.4km/h4uvi
24.03.2019 11:3518.9°C19.2°C18.6°C27.0%1020.0hPa0.0mm2.3km/hSSE5.4km/h4uvi
24.03.2019 11:4019.0°C19.2°C18.9°C27.0%1020.0hPa0.0mm4.8km/hSSW9.0km/h4uvi
24.03.2019 11:4519.6°C19.7°C19.5°C27.0%1019.8hPa0.0mm2.4km/hSSE3.6km/h4uvi
24.03.2019 11:5019.6°C19.8°C19.5°C27.0%1019.0hPa0.0mm2.4km/hWSW5.8km/h4uvi
24.03.2019 11:5519.2°C19.3°C19.2°C27.0%1019.0hPa0.0mm3.1km/hNW5.0km/h4uvi
24.03.2019 12:0019.6°C19.6°C19.5°C27.0%1019.2hPa0.0mm2.6km/hWSW5.8km/h4uvi
24.03.2019 12:0519.9°C20.0°C19.8°C26.8%1020.0hPa0.0mm2.6km/hNW5.4km/h
24.03.2019 12:1019.9°C20.1°C19.8°C26.2%1020.0hPa0.0mm2.7km/hNE6.5km/h4uvi
24.03.2019 12:1519.9°C20.0°C19.8°C26.5%1020.0hPa0.0mm1.6km/hWSW4.0km/h4uvi
24.03.2019 12:2020.2°C20.3°C20.1°C26.2%1020.0hPa0.0mm1.1km/hNE4.7km/h4uvi
24.03.2019 12:2520.4°C20.4°C20.3°C26.0%1020.0hPa0.0mm2.0km/hSSW5.8km/h4uvi
24.03.2019 12:3020.6°C20.6°C20.5°C26.2%1019.8hPa0.0mm4.9km/hSSW7.6km/h4uvi
24.03.2019 12:3520.7°C20.8°C20.6°C26.0%1019.0hPa0.0mm2.6km/hSSW5.0km/h4uvi
24.03.2019 12:4021.0°C21.1°C20.9°C26.0%1019.0hPa0.0mm3.0km/hSSE5.8km/h4uvi
24.03.2019 12:4521.2°C21.2°C21.2°C26.0%1019.0hPa0.0mm4.8km/hSSW8.6km/h4uvi
24.03.2019 12:5021.2°C21.2°C21.2°C26.0%1019.0hPa0.0mm4.2km/hWSW6.8km/h4uvi
24.03.2019 12:5521.4°C21.4°C21.3°C26.0%1019.0hPa0.0mm4.1km/hSSW6.5km/h4uvi
24.03.2019 13:0021.5°C21.5°C21.5°C26.0%1019.0hPa0.0mm3.6km/hNW6.5km/h4uvi
24.03.2019 13:0521.5°C21.5°C21.5°C25.6%1019.0hPa0.0mm4.9km/hSSW7.2km/h4uvi
24.03.2019 13:1021.5°C21.6°C21.4°C25.2%1019.0hPa0.0mm5.3km/hSSW7.9km/h4uvi
24.03.2019 13:1521.7°C21.8°C21.6°C26.0%1018.8hPa0.0mm2.5km/hSSW7.6km/h4uvi
24.03.2019 13:2021.8°C21.9°C21.8°C24.4%1018.0hPa0.0mm5.0km/hSSW7.2km/h4uvi
24.03.2019 13:2521.9°C22.0°C21.9°C24.8%1018.0hPa0.0mm4.1km/hSSW9.4km/h4uvi
24.03.2019 13:3022.2°C22.4°C22.1°C24.0%1018.0hPa0.0mm2.7km/hSSW6.1km/h4uvi
24.03.2019 13:3522.3°C22.4°C22.2°C24.0%1018.0hPa0.0mm4.3km/hSSE6.1km/h4uvi
24.03.2019 13:4022.2°C22.3°C22.1°C23.2%1018.0hPa0.0mm2.1km/hSSE4.3km/h4uvi
24.03.2019 13:4522.6°C22.7°C22.5°C24.2%1018.0hPa0.0mm2.8km/hSSW7.9km/h3uvi
24.03.2019 13:5022.5°C22.6°C22.4°C24.0%1018.0hPa0.0mm3.4km/hNE4.7km/h3uvi
24.03.2019 13:5522.6°C22.6°C22.5°C24.0%1018.0hPa0.0mm3.0km/hNE9.4km/h3uvi
24.03.2019 14:0022.4°C22.4°C22.3°C24.0%1018.0hPa0.0mm2.9km/hNW6.1km/h3uvi
24.03.2019 14:0522.6°C22.8°C22.5°C22.8%1017.0hPa0.0mm2.1km/hNE5.0km/h3uvi
24.03.2019 14:1022.8°C22.8°C22.7°C24.0%1017.0hPa0.0mm2.4km/hSSE6.1km/h3uvi
24.03.2019 14:1522.8°C22.9°C22.8°C24.0%1017.0hPa0.0mm2.5km/hNE6.8km/h3uvi
24.03.2019 14:2022.6°C22.7°C22.6°C22.2%1016.0hPa0.0mm2.3km/hSSE5.8km/h3uvi
24.03.2019 14:2522.7°C22.9°C22.6°C22.5%1016.0hPa0.0mm2.0km/hNE4.0km/h3uvi
24.03.2019 14:3022.8°C22.9°C22.7°C22.5%1016.0hPa0.0mm3.4km/hSSE6.1km/h3uvi
24.03.2019 14:3523.1°C23.2°C23.0°C22.0%1016.0hPa0.0mm2.1km/hNE6.5km/h3uvi
24.03.2019 14:4023.2°C23.3°C23.0°C23.0%1016.0hPa0.0mm2.1km/hSSE4.7km/h2uvi
24.03.2019 14:4523.4°C23.6°C23.3°C23.0%1016.0hPa0.0mm1.6km/hSSE5.8km/h2uvi
24.03.2019 14:5023.1°C23.2°C23.0°C22.2%1016.0hPa0.0mm3.0km/hESE5.8km/h2uvi
24.03.2019 14:5523.4°C23.6°C23.3°C23.0%1016.0hPa0.0mm1.3km/hSSW4.0km/h2uvi
24.03.2019 15:0023.3°C23.5°C23.1°C23.0%1016.0hPa0.0mm2.3km/hNE6.8km/h2uvi
24.03.2019 15:0523.4°C23.6°C23.1°C23.0%1016.0hPa0.0mm3.4km/hSSE6.1km/h2uvi
24.03.2019 15:1023.3°C23.7°C23.1°C23.0%1016.0hPa0.0mm3.9km/hNE7.9km/h2uvi
24.03.2019 15:1523.4°C23.5°C23.3°C23.0%1016.0hPa0.0mm3.1km/hNE5.4km/h2uvi
24.03.2019 15:2023.5°C23.7°C23.3°C23.0%1016.0hPa0.0mm2.4km/hSSE4.0km/h2uvi
24.03.2019 15:2523.6°C23.9°C23.5°C22.6%1016.0hPa0.0mm2.6km/hENE6.5km/h1uvi
24.03.2019 15:3023.4°C23.5°C23.3°C22.5%1016.0hPa0.0mm4.0km/hNE7.9km/h1uvi
24.03.2019 15:3523.7°C23.8°C23.6°C22.2%1016.0hPa0.0mm2.3km/hNE5.4km/h1uvi
24.03.2019 15:4023.7°C23.8°C23.6°C23.0%1016.0hPa0.0mm3.0km/hSSE5.0km/h1uvi
24.03.2019 15:4523.8°C23.8°C23.8°C22.5%1015.9hPa0.0mm2.2km/hSSE5.0km/h1uvi
24.03.2019 15:5023.6°C23.9°C23.4°C21.8%1015.0hPa0.0mm3.4km/hNE6.1km/h1uvi
24.03.2019 15:5523.6°C23.7°C23.5°C21.5%1015.0hPa0.0mm2.9km/hNE5.0km/h1uvi
24.03.2019 16:0023.8°C23.9°C23.7°C23.0%1015.0hPa0.0mm1.7km/hSSE6.1km/h0uvi
24.03.2019 16:0523.6°C23.6°C23.6°C23.0%1015.0hPa0.0mm2.8km/hNE5.0km/h0uvi
24.03.2019 16:1023.9°C24.1°C23.6°C23.0%1015.0hPa0.0mm2.1km/hSSW10.4km/h0uvi
24.03.2019 16:1523.4°C23.5°C23.3°C23.0%1015.0hPa0.0mm3.4km/hNW6.8km/h0uvi
24.03.2019 16:2023.2°C23.3°C23.2°C23.0%1015.0hPa0.0mm3.3km/hNE6.1km/h0uvi
24.03.2019 16:2523.1°C23.2°C23.0°C23.0%1015.0hPa0.0mm3.3km/hENE5.0km/h0uvi
24.03.2019 16:3023.0°C23.1°C22.9°C23.4%1014.9hPa0.0mm3.1km/hNE5.4km/h0uvi
24.03.2019 16:3522.8°C23.0°C22.7°C23.7%1014.0hPa0.0mm3.2km/hNE5.0km/h0uvi
24.03.2019 16:4022.9°C23.0°C22.8°C23.8%1014.0hPa0.0mm1.6km/hNE3.2km/h0uvi
24.03.2019 16:4522.7°C22.8°C22.6°C24.0%1014.0hPa0.0mm3.4km/hNE6.1km/h0uvi
24.03.2019 16:5022.4°C22.5°C22.4°C24.0%1014.0hPa0.0mm3.0km/hNE5.0km/h0uvi
24.03.2019 16:5522.6°C22.7°C22.6°C24.0%1014.0hPa0.0mm2.8km/hNE5.8km/h0uvi
24.03.2019 17:0022.3°C22.5°C22.1°C24.0%1014.1hPa0.0mm2.7km/hNE6.5km/h0uvi
24.03.2019 17:0522.0°C22.1°C22.0°C24.0%1015.0hPa0.0mm4.4km/hNE6.8km/h0uvi
24.03.2019 17:1022.1°C22.1°C22.0°C24.0%1015.0hPa0.0mm3.0km/hNE6.8km/h0uvi
24.03.2019 17:1521.8°C21.9°C21.8°C24.0%1015.0hPa0.0mm3.5km/hNE6.5km/h0uvi
24.03.2019 17:2021.7°C21.8°C21.7°C24.3%1015.0hPa0.0mm3.9km/hNE5.8km/h0uvi
24.03.2019 17:2521.7°C21.7°C21.6°C25.0%1015.0hPa0.0mm3.0km/hNE5.4km/h0uvi
24.03.2019 17:3021.4°C21.6°C21.1°C25.6%1015.0hPa0.0mm3.1km/hS5.4km/h0uvi
24.03.2019 17:3520.9°C21.0°C20.7°C26.0%1014.0hPa0.0mm4.5km/hSSW10.1km/h0uvi
24.03.2019 17:4020.6°C20.7°C20.4°C26.0%1014.0hPa0.0mm2.7km/hSSW5.8km/h0uvi
24.03.2019 17:4520.1°C20.3°C19.9°C26.0%1014.1hPa0.0mm4.6km/hSSW6.8km/h0uvi
24.03.2019 17:5019.7°C19.9°C19.4°C26.4%1015.0hPa0.0mm3.3km/hSSE6.8km/h0uvi
24.03.2019 17:5519.1°C19.2°C18.9°C27.0%1015.0hPa0.0mm6.1km/hSE9.0km/h0uvi
24.03.2019 18:0018.9°C18.9°C18.8°C27.0%1015.0hPa0.0mm4.6km/hSSW6.8km/h0uvi
24.03.2019 18:0518.6°C18.7°C18.5°C27.0%1015.0hPa0.0mm0.6km/hSSW2.2km/h0uvi
24.03.2019 18:1018.4°C18.4°C18.4°C28.0%1015.0hPa0.0mm3.2km/hSSE8.6km/h0uvi
24.03.2019 18:1518.1°C18.1°C18.0°C28.0%1015.0hPa0.0mm4.3km/hSSE6.8km/h0uvi
24.03.2019 18:2017.9°C17.9°C17.8°C28.8%1015.0hPa0.0mm4.0km/hSSE5.8km/h0uvi
24.03.2019 18:2517.6°C17.7°C17.4°C29.0%1015.0hPa0.0mm3.9km/hSSE5.8km/h0uvi
24.03.2019 18:3017.2°C17.2°C17.2°C30.0%1015.0hPa0.0mm4.5km/hSSW10.1km/h0uvi
24.03.2019 18:3517.2°C17.2°C17.1°C30.0%1015.0hPa0.0mm5.5km/hSSW7.9km/h0uvi
24.03.2019 18:4017.1°C17.1°C17.0°C30.0%1015.0hPa0.0mm4.5km/hSSE9.0km/h0uvi
24.03.2019 18:4516.9°C16.9°C16.8°C31.0%1015.0hPa0.0mm6.3km/hSSW9.7km/h0uvi
24.03.2019 18:5016.8°C16.8°C16.7°C31.0%1015.0hPa0.0mm4.3km/hSSW6.8km/h0uvi
24.03.2019 18:5516.7°C16.7°C16.6°C31.0%1015.0hPa0.0mm4.0km/hSSE5.8km/h0uvi
24.03.2019 19:0016.4°C16.5°C16.3°C31.2%1015.1hPa0.0mm4.2km/hSSW8.6km/h0uvi
24.03.2019 19:0516.2°C16.2°C16.2°C32.0%1016.0hPa0.0mm4.2km/hSSW5.8km/h0uvi
24.03.2019 19:1016.1°C16.1°C16.1°C32.0%1016.0hPa0.0mm2.4km/hSSW4.0km/h0uvi
24.03.2019 19:1516.0°C16.0°C16.0°C32.0%1015.9hPa0.0mm2.4km/hSSW5.4km/h0uvi
24.03.2019 19:2015.9°C15.9°C15.9°C32.8%1015.0hPa0.0mm4.2km/hSSW6.8km/h0uvi
24.03.2019 19:2515.9°C15.9°C15.9°C33.0%1015.0hPa0.0mm3.9km/hSSW6.8km/h0uvi
24.03.2019 19:3015.8°C15.9°C15.8°C33.0%1015.0hPa0.0mm4.5km/hSSW6.1km/h0uvi
24.03.2019 19:3515.7°C15.7°C15.6°C34.0%1015.9hPa0.0mm5.6km/hSSW9.7km/h0uvi
24.03.2019 19:4015.6°C15.6°C15.6°C34.0%1016.0hPa0.0mm6.8km/hSSW10.4km/h0uvi
24.03.2019 19:4515.6°C15.6°C15.5°C34.0%1016.0hPa0.0mm6.3km/hSSW7.9km/h0uvi
24.03.2019 19:5015.4°C15.4°C15.3°C34.0%1016.0hPa0.0mm1.7km/hSSE5.0km/h0uvi
24.03.2019 19:5515.2°C15.2°C15.1°C34.0%1016.0hPa0.0mm3.6km/hSSE9.0km/h0uvi
24.03.2019 20:0015.1°C15.1°C15.0°C35.0%1016.0hPa0.0mm6.2km/hSSW9.4km/h0uvi
24.03.2019 20:0515.1°C15.1°C15.1°C35.0%1016.0hPa0.0mm5.9km/hSSE9.4km/h0uvi
24.03.2019 20:1015.1°C15.1°C15.1°C35.0%1016.0hPa0.0mm5.0km/hSSW6.8km/h0uvi
24.03.2019 20:1515.1°C15.1°C15.0°C35.0%1016.0hPa0.0mm5.4km/hSSW10.1km/h0uvi
24.03.2019 20:2015.0°C15.0°C15.0°C35.0%1016.0hPa0.0mm6.4km/hSSW9.7km/h0uvi
24.03.2019 20:2514.8°C14.9°C14.8°C36.0%1016.0hPa0.0mm5.5km/hSSW6.8km/h0uvi
24.03.2019 20:3014.7°C14.7°C14.6°C36.0%1015.9hPa0.0mm4.1km/hSSW5.4km/h0uvi
24.03.2019 20:3514.5°C14.6°C14.5°C37.0%1015.0hPa0.0mm4.8km/hSSW8.6km/h0uvi
24.03.2019 20:4014.5°C14.5°C14.4°C37.0%1015.0hPa0.0mm4.9km/hSSE8.6km/h0uvi
24.03.2019 20:4514.3°C14.4°C14.2°C37.4%1015.0hPa0.0mm4.8km/hSSW6.8km/h0uvi
24.03.2019 20:5014.2°C14.2°C14.1°C38.0%1015.0hPa0.0mm5.5km/hSSW7.9km/h0uvi
24.03.2019 20:5514.0°C14.0°C14.0°C38.2%1015.0hPa0.0mm5.0km/hSSW7.9km/h0uvi
24.03.2019 21:0014.0°C14.0°C14.0°C38.3%1015.4hPa0.0mm4.4km/hWSW9.4km/h0uvi
24.03.2019 21:0514.0°C14.0°C14.0°C38.8%1017.0hPa0.0mm4.7km/hSSW8.6km/h0uvi
24.03.2019 21:1013.9°C13.9°C13.9°C39.0%1017.0hPa0.0mm4.7km/hWSW6.8km/h0uvi
24.03.2019 21:1513.8°C13.9°C13.8°C39.0%1017.0hPa0.0mm3.3km/hWSW4.3km/h0uvi
24.03.2019 21:2013.7°C13.7°C13.6°C39.0%1016.1hPa0.0mm1.6km/hSSW2.2km/h0uvi
24.03.2019 21:2513.5°C13.6°C13.5°C39.0%1016.0hPa0.0mm1.8km/hSSW5.0km/h
24.03.2019 21:3013.5°C13.5°C13.5°C39.0%1016.0hPa0.0mm4.5km/hSSW7.9km/h0uvi
24.03.2019 21:3513.4°C13.5°C13.4°C39.0%1016.0hPa0.0mm4.3km/hSSW6.5km/h0uvi
24.03.2019 21:4013.3°C13.3°C13.3°C40.0%1016.0hPa0.0mm4.0km/hSSW6.5km/h0uvi
24.03.2019 21:4513.2°C13.3°C13.1°C40.0%1016.0hPa0.0mm3.6km/hWSW5.4km/h0uvi
24.03.2019 21:5012.9°C13.1°C12.8°C41.0%1016.0hPa0.0mm1.7km/hSSW3.2km/h0uvi
24.03.2019 21:5512.6°C12.7°C12.4°C42.0%1016.0hPa0.0mm2.7km/hSSW4.3km/h0uvi
24.03.2019 22:0012.3°C12.4°C12.2°C42.0%1016.0hPa0.0mm1.7km/hWSW3.6km/h0uvi
24.03.2019 22:0512.1°C12.1°C12.0°C42.0%1015.1hPa0.0mm1.1km/hSSW2.5km/h0uvi
24.03.2019 22:1011.9°C12.0°C11.8°C42.4%1015.0hPa0.0mm1.4km/hSSW3.2km/h0uvi
24.03.2019 22:1511.8°C11.8°C11.7°C42.2%1015.0hPa0.0mm0.3km/hW2.2km/h0uvi
24.03.2019 22:2011.7°C11.7°C11.7°C43.0%1015.9hPa0.0mm1.0km/hWSW2.5km/h0uvi
24.03.2019 22:2511.5°C11.6°C11.3°C45.2%1016.0hPa0.0mm2.0km/hWSW3.6km/h0uvi
24.03.2019 22:3011.2°C11.3°C11.2°C45.6%1016.0hPa0.0mm0.9km/hWSW2.5km/h0uvi
24.03.2019 22:3511.1°C11.2°C11.1°C45.6%1016.0hPa0.0mm0.6km/hNW2.5km/h0uvi
24.03.2019 22:4011.0°C11.1°C11.0°C45.0%1016.0hPa0.0mm0.3km/hWSW1.8km/h0uvi
24.03.2019 22:4510.9°C10.9°C10.9°C46.4%1016.0hPa0.0mm1.2km/hWSW3.6km/h0uvi
24.03.2019 22:5010.7°C10.7°C10.7°C49.0%1016.0hPa0.0mm2.4km/hWSW3.2km/h0uvi
24.03.2019 22:5510.5°C10.6°C10.5°C50.0%1016.0hPa0.0mm2.4km/hSSW4.0km/h0uvi
24.03.2019 23:0010.5°C10.5°C10.5°C49.7%1016.0hPa0.0mm1.0km/hSSW2.5km/h0uvi
24.03.2019 23:0510.5°C10.5°C10.5°C48.8%1016.0hPa0.0mm0.5km/hWSW2.2km/h0uvi
24.03.2019 23:1010.4°C10.4°C10.3°C49.4%1016.0hPa0.0mm2.2km/hSSW4.0km/h0uvi
24.03.2019 23:1510.3°C10.3°C10.2°C49.0%1015.8hPa0.0mm0.3km/hWSW1.8km/h0uvi
24.03.2019 23:2010.2°C10.2°C10.2°C49.4%1015.0hPa0.0mm1.6km/hWSW2.5km/h0uvi
24.03.2019 23:2510.1°C10.1°C10.1°C50.0%1015.0hPa0.0mm1.6km/hWSW2.5km/h0uvi
24.03.2019 23:3010.0°C10.0°C9.9°C49.8%1015.2hPa0.0mm0.0km/hWSW1.4km/h0uvi
24.03.2019 23:359.9°C9.9°C9.8°C50.5%1016.0hPa0.0mm1.4km/hWSW3.2km/h0uvi
24.03.2019 23:409.8°C9.8°C9.7°C51.4%1016.0hPa0.0mm1.8km/hWSW2.5km/h0uvi
24.03.2019 23:459.7°C9.7°C9.7°C51.0%1016.0hPa0.0mm0.7km/hWSW2.2km/h0uvi
24.03.2019 23:509.7°C9.7°C9.7°C51.0%1016.0hPa0.0mm0.4km/hWSW3.6km/h0uvi
24.03.2019 23:559.7°C9.7°C9.6°C52.0%1016.0hPa0.0mm1.6km/hSSW2.2km/h0uvi
25.03.2019 00:009.4°C9.5°C9.4°C51.5%1016.0hPa0.0mm0.2km/hSSW2.5km/h0uvi
25.03.2019 00:059.4°C9.4°C9.4°C52.6%1016.0hPa0.0mm2.1km/hWSW4.3km/h0uvi
25.03.2019 00:109.4°C9.4°C9.3°C52.5%1016.0hPa0.0mm0.7km/hWSW2.5km/h0uvi
25.03.2019 00:159.3°C9.3°C9.3°C52.0%1016.0hPa0.0mm0.3km/hWSW2.2km/h0uvi
25.03.2019 00:209.2°C9.3°C9.2°C53.8%1016.0hPa0.0mm2.1km/hSSW3.6km/h0uvi
25.03.2019 00:259.1°C9.1°C9.0°C53.7%1016.0hPa0.0mm1.7km/hSSW2.5km/h0uvi
25.03.2019 00:309.0°C9.0°C9.0°C53.0%1016.0hPa0.0mm0.3km/hWSW1.8km/h0uvi
25.03.2019 00:359.0°C9.0°C9.0°C53.3%1016.0hPa0.0mm1.1km/hWNW3.6km/h0uvi
25.03.2019 00:408.9°C9.0°C8.7°C55.5%1016.0hPa0.0mm2.6km/hSSW4.0km/h0uvi
25.03.2019 00:458.6°C8.7°C8.6°C55.7%1016.0hPa0.0mm1.9km/hSSW3.2km/h0uvi
25.03.2019 00:508.5°C8.5°C8.5°C56.0%1016.0hPa0.0mm1.3km/hNW2.5km/h0uvi
25.03.2019 00:558.5°C8.5°C8.5°C56.0%1016.0hPa0.0mm1.6km/hWNW3.6km/h0uvi
25.03.2019 01:008.5°C8.5°C8.5°C55.4%1016.0hPa0.0mm1.1km/hWSW2.5km/h0uvi
25.03.2019 01:058.5°C8.5°C8.4°C56.8%1016.0hPa0.0mm3.0km/hWSW5.8km/h0uvi
25.03.2019 01:108.2°C8.2°C8.1°C58.0%1016.0hPa0.0mm2.5km/hSSW3.6km/h0uvi
25.03.2019 01:158.1°C8.1°C8.0°C58.8%1016.0hPa0.0mm3.6km/hSSW4.7km/h0uvi
25.03.2019 01:208.0°C8.1°C8.0°C59.0%1016.0hPa0.0mm3.4km/hSSW4.0km/h0uvi
25.03.2019 01:258.0°C8.0°C7.9°C58.0%1016.0hPa0.0mm0.5km/hNW3.6km/h0uvi
25.03.2019 01:308.0°C8.0°C8.0°C58.0%1016.0hPa0.0mm2.2km/hNW4.0km/h0uvi
25.03.2019 01:357.9°C8.0°C7.9°C58.0%1016.0hPa0.0mm1.4km/hWSW4.0km/h0uvi
25.03.2019 01:407.9°C7.9°C7.9°C59.3%1016.0hPa0.0mm3.5km/hWSW5.0km/h0uvi
25.03.2019 01:458.1°C8.1°C8.0°C58.2%1016.0hPa0.0mm1.4km/hWSW3.6km/h0uvi
25.03.2019 01:508.2°C8.3°C8.2°C58.0%1016.0hPa0.0mm1.8km/hWSW4.3km/h0uvi
25.03.2019 01:558.3°C8.3°C8.2°C58.0%1016.0hPa0.0mm3.0km/hSSW6.1km/h0uvi
25.03.2019 02:008.2°C8.2°C8.2°C57.7%1015.8hPa0.0mm1.6km/hWSW5.4km/h0uvi
25.03.2019 02:058.2°C8.2°C8.2°C57.0%1015.0hPa0.0mm0.9km/hNW2.2km/h0uvi
25.03.2019 02:108.2°C8.2°C8.2°C57.2%1015.0hPa0.0mm1.7km/hNW3.2km/h0uvi
25.03.2019 02:158.2°C8.2°C8.2°C56.0%1015.0hPa0.0mm0.3km/hNW1.4km/h0uvi
25.03.2019 02:208.2°C8.2°C8.1°C56.0%1015.0hPa0.0mm0.2km/hWSW3.2km/h0uvi
25.03.2019 02:258.1°C8.1°C8.0°C56.5%1015.0hPa0.0mm1.5km/hS3.6km/h0uvi
25.03.2019 02:308.0°C8.0°C7.9°C56.0%1015.0hPa0.0mm0.5km/hSSW2.2km/h0uvi
25.03.2019 02:357.9°C7.9°C7.8°C56.2%1015.0hPa0.0mm1.0km/hNW2.5km/h0uvi
25.03.2019 02:407.9°C7.9°C7.9°C57.0%1015.0hPa0.0mm1.1km/hWNW2.5km/h0uvi
25.03.2019 02:457.9°C7.9°C7.9°C57.5%1015.0hPa0.0mm1.7km/hWSW4.7km/h0uvi
25.03.2019 02:507.8°C7.9°C7.7°C58.0%1015.0hPa0.0mm3.0km/hWSW5.4km/h0uvi
25.03.2019 02:557.7°C7.8°C7.7°C58.6%1015.0hPa0.0mm2.8km/hWSW4.7km/h0uvi
25.03.2019 03:007.8°C7.8°C7.7°C58.0%1015.0hPa0.0mm1.7km/hSE4.0km/h0uvi
25.03.2019 03:057.7°C7.7°C7.6°C58.0%1015.0hPa0.0mm1.3km/hNW3.6km/h0uvi
25.03.2019 03:107.5°C7.6°C7.5°C58.0%1015.0hPa0.0mm1.4km/hWSW3.2km/h0uvi
25.03.2019 03:157.5°C7.5°C7.5°C58.0%1014.8hPa0.0mm1.2km/hWSW3.6km/h0uvi
25.03.2019 03:207.5°C7.5°C7.4°C58.0%1014.0hPa0.0mm0.2km/hWSW2.2km/h0uvi
25.03.2019 03:257.3°C7.4°C7.3°C59.8%1014.0hPa0.0mm2.6km/hSSW5.4km/h0uvi
25.03.2019 03:307.3°C7.3°C7.3°C59.2%1014.0hPa0.0mm0.7km/hWNW2.5km/h0uvi
25.03.2019 03:357.2°C7.3°C7.2°C58.0%1014.0hPa0.0mm0.0km/hWSW2.5km/h0uvi
25.03.2019 03:407.2°C7.3°C7.1°C59.2%1014.0hPa0.0mm2.5km/hSSW4.3km/h0uvi
25.03.2019 03:457.0°C7.1°C7.0°C59.7%1014.0hPa0.0mm2.0km/hSSE4.7km/h0uvi
25.03.2019 03:506.8°C6.9°C6.8°C59.5%1014.0hPa0.0mm0.9km/hNW2.2km/h0uvi
25.03.2019 03:556.8°C6.8°C6.8°C59.0%1014.0hPa0.0mm0.6km/hWNW2.2km/h0uvi
25.03.2019 04:006.8°C6.8°C6.8°C59.0%1014.0hPa0.0mm0.1km/hWSW2.2km/h0uvi
25.03.2019 04:056.7°C6.7°C6.6°C60.3%1014.0hPa0.0mm1.1km/hSSW3.6km/h0uvi
25.03.2019 04:106.5°C6.6°C6.5°C60.8%1014.0hPa0.0mm0.5km/hNW1.8km/h0uvi
25.03.2019 04:156.6°C6.7°C6.5°C62.8%1014.0hPa0.0mm2.2km/hSSW3.6km/h0uvi
25.03.2019 04:206.8°C6.8°C6.8°C62.8%1014.0hPa0.0mm2.4km/hNE4.7km/h0uvi
25.03.2019 04:256.7°C6.8°C6.7°C62.3%1014.0hPa0.0mm1.6km/hNW3.6km/h0uvi
25.03.2019 04:306.7°C6.7°C6.6°C62.8%1013.8hPa0.0mm2.3km/hSSW4.3km/h0uvi
25.03.2019 04:356.6°C6.6°C6.6°C64.0%1013.0hPa0.0mm2.7km/hWSW4.0km/h0uvi
25.03.2019 04:406.6°C6.6°C6.5°C61.7%1013.0hPa0.0mm0.0km/hSSW2.2km/h0uvi
25.03.2019 04:456.5°C6.5°C6.5°C62.2%1013.2hPa0.0mm1.6km/hSSW3.2km/h0uvi
25.03.2019 04:506.4°C6.5°C6.4°C63.8%1014.0hPa0.0mm2.5km/hSSW3.6km/h0uvi
25.03.2019 04:556.4°C6.4°C6.4°C63.6%1014.0hPa0.0mm1.7km/hWSW2.2km/h0uvi
25.03.2019 05:006.4°C6.4°C6.4°C63.4%1013.8hPa0.0mm2.1km/hWSW4.0km/h0uvi
25.03.2019 05:056.3°C6.4°C6.3°C63.5%1013.0hPa0.0mm1.4km/hWSW3.6km/h0uvi
25.03.2019 05:106.4°C6.4°C6.4°C65.0%1013.0hPa0.0mm2.9km/hWSW4.3km/h0uvi
25.03.2019 05:156.4°C6.4°C6.3°C64.6%1013.2hPa0.0mm1.9km/hWSW4.0km/h0uvi
25.03.2019 05:206.2°C6.3°C6.1°C63.6%1014.0hPa0.0mm1.9km/hWSW4.7km/h0uvi
25.03.2019 05:255.9°C6.0°C5.8°C64.4%1014.0hPa0.0mm2.5km/hWSW4.7km/h0uvi
25.03.2019 05:305.7°C5.8°C5.7°C64.7%1014.0hPa0.0mm2.4km/hNW4.3km/h0uvi
25.03.2019 05:355.8°C5.8°C5.8°C65.2%1014.0hPa0.0mm1.3km/hNW3.6km/h0uvi
25.03.2019 05:405.8°C5.8°C5.8°C65.0%1014.0hPa0.0mm1.5km/hNW3.2km/h0uvi
25.03.2019 05:455.8°C5.8°C5.8°C68.0%1014.0hPa0.0mm2.9km/hSSW4.3km/h0uvi
25.03.2019 05:505.8°C5.8°C5.8°C68.6%1014.0hPa0.0mm2.3km/hSSW4.3km/h0uvi
25.03.2019 05:555.8°C5.8°C5.8°C66.5%1014.0hPa0.0mm0.2km/hNW2.5km/h0uvi
25.03.2019 06:005.8°C5.8°C5.8°C66.0%1014.0hPa0.0mm0.5km/hNW3.6km/h0uvi
25.03.2019 06:055.7°C5.8°C5.7°C67.6%1014.0hPa0.0mm2.5km/hSSW5.0km/h0uvi
25.03.2019 06:105.7°C5.7°C5.6°C68.0%1014.0hPa0.0mm2.2km/hSSW3.2km/h0uvi
25.03.2019 06:155.6°C5.6°C5.6°C68.0%1014.0hPa0.0mm1.9km/hSSW3.6km/h0uvi
25.03.2019 06:205.5°C5.5°C5.5°C69.2%1014.0hPa0.0mm2.2km/hSSW4.0km/h0uvi
25.03.2019 06:255.6°C5.6°C5.5°C69.2%1014.0hPa0.0mm1.4km/hWSW2.5km/h0uvi
25.03.2019 06:305.7°C5.7°C5.6°C68.0%1013.8hPa0.0mm0.8km/hNW3.2km/h0uvi
25.03.2019 06:355.7°C5.7°C5.7°C68.8%1013.0hPa0.0mm2.2km/hWSW4.0km/h0uvi
25.03.2019 06:405.6°C5.7°C5.6°C68.0%1013.0hPa0.0mm0.9km/hNW3.6km/h0uvi
25.03.2019 06:455.5°C5.6°C5.5°C67.2%1013.0hPa0.0mm1.8km/hWSW3.6km/h0uvi
25.03.2019 06:505.4°C5.5°C5.4°C68.0%1013.0hPa0.0mm1.8km/hNW3.6km/h0uvi
25.03.2019 06:555.4°C5.5°C5.4°C68.0%1013.0hPa0.0mm1.3km/hWSW4.0km/h0uvi
25.03.2019 07:005.6°C5.6°C5.6°C69.6%1013.2hPa0.0mm2.3km/hWSW4.0km/h0uvi
25.03.2019 07:055.7°C5.7°C5.7°C70.0%1014.0hPa0.0mm2.2km/hSSW4.0km/h0uvi
25.03.2019 07:105.8°C5.8°C5.7°C70.0%1014.0hPa0.0mm2.2km/hWSW4.3km/h0uvi
25.03.2019 07:155.9°C5.9°C5.8°C69.0%1014.0hPa0.0mm1.0km/hWSW2.2km/h0uvi
25.03.2019 07:206.1°C6.1°C6.0°C69.0%1014.0hPa0.0mm1.5km/hWSW3.2km/h0uvi
25.03.2019 07:256.2°C6.3°C6.1°C69.0%1014.0hPa0.0mm2.1km/hWSW5.0km/h0uvi
25.03.2019 07:306.5°C6.5°C6.4°C69.0%1014.0hPa0.0mm2.3km/hWSW4.3km/h0uvi
25.03.2019 07:356.7°C6.7°C6.6°C68.0%1014.0hPa0.0mm1.8km/hWSW3.6km/h0uvi
25.03.2019 07:406.7°C6.8°C6.7°C67.7%1014.0hPa0.0mm1.0km/hWSW4.3km/h0uvi
25.03.2019 07:457.0°C7.1°C6.9°C67.0%1014.0hPa0.0mm1.6km/hWSW4.3km/h0uvi
25.03.2019 07:507.3°C7.4°C7.1°C66.0%1014.0hPa0.0mm2.8km/hWSW5.0km/h0uvi